Pelagitis — SVBC8 — position and weather

sailwx.info

Track history (hours):
 
Tides and Currents Weather Stations Pressure Air Temp Water Temp Dewpoint Dewpoint Depression Visibility Wind Speed Wind Dir Waves Ship Positions

Pelagitis

Last reported at 2018-Jul-18 22:19 UTC. Time now 2018-Jul-19 15:03 UTC.
Position N 37°10' E 025°48'.

Length 151 m; draft 6.7 m.

Type: Cargo ship. MMSI: 241041410.

Date/timePositionNaut miles runAvg speedWind from/ knotsBaromVisibWave heightAir tempDewpointWater temp
2018-Jul-18 22:19N 37°10' E 025°48'414.1
2018-Jul-18 22:01N 37°12' E 025°43'1014.1
2018-Jul-18 21:17N 37°14' E 025°30'414.4
2018-Jul-18 21:00N 37°15' E 025°25'714.1
2018-Jul-18 20:30N 37°16' E 025°17'713.8
2018-Jul-18 19:59N 37°18' E 025°08'713.8
2018-Jul-18 19:30N 37°20' E 024°60'713.9
2018-Jul-18 19:00N 37°21' E 024°51'3113.3
2018-Jul-18 16:41N 37°31' E 024°14'1014.2
2018-Jul-18 15:59N 37°34' E 024°02'814.1
2018-Jul-18 15:26N 37°37' E 023°53'613.9
2018-Jul-18 15:00N 37°39' E 023°46'612.7
2018-Jul-18 14:30N 37°44' E 023°41'1413.8
2018-Jul-18 13:30N 37°57' E 023°36'1 1.3
2018-Jul-18 13:01N 37°57' E 023°36'0 0.0
2018-Jul-18 12:30N 37°57' E 023°36'0 0.0
2018-Jul-18 12:01N 37°57' E 023°36'0 0.0
2018-Jul-18 11:30N 37°57' E 023°36'0 0.0
2018-Jul-18 10:29N 37°57' E 023°36'0 0.0
2018-Jul-18 09:59N 37°57' E 023°36'0 0.0
2018-Jul-18 09:24N 37°57' E 023°36'0 0.0
2018-Jul-18 08:55N 37°57' E 023°36'0 0.0
2018-Jul-18 08:30N 37°57' E 023°36'0 0.0
2018-Jul-18 08:00N 37°57' E 023°36'0 0.0
2018-Jul-18 07:27N 37°57' E 023°36'0 0.0
2018-Jul-18 06:58N 37°57' E 023°36'0 0.0
2018-Jul-18 06:25N 37°57' E 023°36'0 0.0
2018-Jul-18 06:00N 37°57' E 023°36'0 0.0
2018-Jul-18 05:30N 37°57' E 023°36'0 0.0
2018-Jul-18 05:00N 37°57' E 023°36'0 0.0
2018-Jul-18 04:30N 37°57' E 023°36'0 0.0
2018-Jul-18 04:00N 37°57' E 023°36'510.2
2018-Jul-18 03:30N 37°52' E 023°38'714.9
2018-Jul-18 03:00N 37°46' E 023°43'714.8
2018-Jul-18 02:30N 37°39' E 023°47'714.9
2018-Jul-18 02:00N 37°32' E 023°48'814.7
2018-Jul-18 01:30N 37°24' E 023°49'5515.0
2018-Jul-17 21:48N 36°29' E 024°01'414.9
2018-Jul-17 21:30N 36°25' E 024°02'815.0
2018-Jul-17 20:59N 36°17' E 024°03'4814.5
2018-Jul-17 17:38N 35°29' E 024°12'2 0.2
2018-Jul-17 08:27N 35°29' E 024°10'1814.5
2018-Jul-17 07:11N 35°47' E 024°10'515.6
2018-Jul-17 06:51N 35°53' E 024°09'615.7
2018-Jul-17 06:28N 35°58' E 024°07'715.6
2018-Jul-17 06:00N 36°05' E 024°06'10015.5
2018-Jul-16 23:31N 37°44' E 023°40'815.5
2018-Jul-16 23:00N 37°51' E 023°37'6 3.2
2018-Jul-16 21:07N 37°57' E 023°36'0 0.0
2018-Jul-16 20:58N 37°57' E 023°36'0 0.0
2018-Jul-16 20:29N 37°57' E 023°36'0 0.0
2018-Jul-16 19:59N 37°57' E 023°36'0 0.0
2018-Jul-16 19:29N 37°57' E 023°36'0 0.0
2018-Jul-16 18:56N 37°57' E 023°36'0 0.0
2018-Jul-16 18:27N 37°57' E 023°36'0 0.0
2018-Jul-16 17:54N 37°57' E 023°36'0 0.0
2018-Jul-16 17:28N 37°57' E 023°36'0 0.0
2018-Jul-16 16:58N 37°57' E 023°36'0 0.0
2018-Jul-16 16:28N 37°57' E 023°36'0 0.0
2018-Jul-16 16:00N 37°57' E 023°36'4 7.1
2018-Jul-16 15:31N 37°54' E 023°38'816.5
2018-Jul-16 15:01N 37°46' E 023°42'815.6
2018-Jul-16 14:30N 37°41' E 023°49'816.2
2018-Jul-16 14:00N 37°38' E 023°59'143 6.6
2018-Jul-15 16:12N 39°52' E 025°03'315.1
2018-Jul-15 15:58N 39°53' E 024°58'815.7
2018-Jul-15 15:29N 39°53' E 024°48'613.6
2018-Jul-15 15:01N 39°53' E 024°40'1514.8
2018-Jul-15 14:01N 39°53' E 024°21'014.9
2018-Jul-15 13:59N 39°53' E 024°20'814.9
2018-Jul-15 13:29N 39°53' E 024°10'3 0.2
2018-Jul-14 22:02N 39°53' E 024°06'215.9
2018-Jul-14 21:56N 39°53' E 024°08'1116.0
2018-Jul-14 21:17N 39°53' E 024°22'616.4
2018-Jul-14 20:54N 39°53' E 024°30'1016.1
2018-Jul-14 20:18N 39°53' E 024°43'616.1
2018-Jul-14 19:54N 39°53' E 024°51'134 6.2
2018-Jul-13 22:12N 37°44' E 025°39'615.8
2018-Jul-13 21:47N 37°44' E 025°30'515.6
2018-Jul-13 21:30N 37°43' E 025°25'2715.4
2018-Jul-13 19:45N 37°42' E 024°51'2314.9
2018-Jul-13 18:14N 37°43' E 024°22'2214.5
2018-Jul-13 16:42N 37°38' E 023°55'315.0
2018-Jul-13 16:30N 37°38' E 023°51'714.8
2018-Jul-13 16:00N 37°41' E 023°42'815.4
2018-Jul-13 15:30N 37°48' E 023°38'815.2
2018-Jul-13 15:01N 37°55' E 023°36'2 2.0
2018-Jul-13 14:00N 37°57' E 023°36'0 0.0
2018-Jul-13 13:29N 37°57' E 023°36'0 0.0
2018-Jul-13 12:59N 37°57' E 023°36'0 0.0
2018-Jul-13 12:23N 37°57' E 023°36'0 0.0
2018-Jul-13 11:59N 37°57' E 023°36'0 0.0
2018-Jul-13 11:30N 37°57' E 023°36'0 0.0
2018-Jul-13 10:58N 37°57' E 023°36'0 0.0
2018-Jul-13 10:23N 37°57' E 023°36'0 0.0
2018-Jul-13 09:59N 37°57' E 023°36'0 0.0
2018-Jul-13 09:27N 37°57' E 023°36'0 0.0
2018-Jul-13 08:58N 37°57' E 023°36'0 0.0
2018-Jul-13 08:30N 37°57' E 023°36'2 3.5
2018-Jul-13 08:01N 37°55' E 023°37'815.3
2018-Jul-13 07:31N 37°49' E 023°41'815.3
2018-Jul-13 07:00N 37°42' E 023°46'815.4
2018-Jul-13 06:30N 37°38' E 023°54'4215.1
2018-Jul-13 03:44N 37°24' E 024°44'415.6
2018-Jul-13 03:31N 37°23' E 024°48'815.3
2018-Jul-13 03:00N 37°20' E 024°57'815.4
2018-Jul-13 02:30N 37°19' E 025°07'815.6
2018-Jul-13 02:00N 37°18' E 025°16'815.4
2018-Jul-13 01:30N 37°17' E 025°26'1115.3
2018-Jul-13 00:46N 37°15' E 025°40'415.2
2018-Jul-13 00:31N 37°14' E 025°45'79 2.4
2018-Jul-11 15:36N 37°21' E 024°06'214.6
2018-Jul-11 15:28N 37°23' E 024°05'714.6
2018-Jul-11 15:00N 37°28' E 023°59'714.6
2018-Jul-11 14:30N 37°33' E 023°53'714.7
2018-Jul-11 14:00N 37°38' E 023°46'714.3
2018-Jul-11 13:30N 37°44' E 023°40'714.5
2018-Jul-11 13:00N 37°51' E 023°37'713.3
2018-Jul-11 12:30N 37°57' E 023°36'0 0.8
2018-Jul-11 12:00N 37°57' E 023°36'0 0.0
2018-Jul-11 11:30N 37°57' E 023°36'0 0.0
2018-Jul-11 10:58N 37°57' E 023°36'0 0.0
2018-Jul-11 10:28N 37°57' E 023°36'0 0.0
2018-Jul-11 09:59N 37°57' E 023°36'0 0.0
2018-Jul-11 09:29N 37°57' E 023°36'0 0.0
2018-Jul-11 09:00N 37°57' E 023°36'0 0.0
2018-Jul-11 08:28N 37°57' E 023°36'0 0.0
2018-Jul-11 08:00N 37°57' E 023°36'0 0.0
2018-Jul-11 07:29N 37°57' E 023°36'0 0.0
2018-Jul-11 06:58N 37°57' E 023°36'0 0.0
2018-Jul-11 06:23N 37°57' E 023°36'0 0.0
2018-Jul-11 05:58N 37°57' E 023°36'0 0.0
2018-Jul-11 05:29N 37°57' E 023°36'0 0.0
2018-Jul-11 04:59N 37°57' E 023°36'0 0.0
2018-Jul-11 04:30N 37°57' E 023°36'2 3.9
2018-Jul-11 04:00N 37°55' E 023°37'815.3
2018-Jul-11 03:30N 37°48' E 023°41'715.0
2018-Jul-11 03:00N 37°42' E 023°45'714.7
2018-Jul-11 02:30N 37°34' E 023°47'12715.0
2018-Jul-10 18:03N 35°29' E 024°12'414.5
2018-Jul-10 17:45N 35°29' E 024°06'1 0.1
2018-Jul-10 07:37N 35°30' E 024°05'12513.7
2018-Jul-09 22:28N 37°34' E 023°44'614.4
2018-Jul-09 22:00N 37°40' E 023°42'714.4
2018-Jul-09 21:31N 37°47' E 023°39'714.5
2018-Jul-09 21:00N 37°54' E 023°36'3 6.7
2018-Jul-09 20:30N 37°57' E 023°36'0 0.0
2018-Jul-09 20:00N 37°57' E 023°36'0 0.0
2018-Jul-09 19:29N 37°57' E 023°36'0 0.0
2018-Jul-09 18:58N 37°57' E 023°36'0 0.0
2018-Jul-09 18:29N 37°57' E 023°36'0 0.0
2018-Jul-09 17:57N 37°57' E 023°36'0 0.0
2018-Jul-09 17:30N 37°57' E 023°36'0 0.0
2018-Jul-09 17:00N 37°57' E 023°36'0 0.0
2018-Jul-09 16:23N 37°57' E 023°36'0 0.0
2018-Jul-09 15:57N 37°57' E 023°36'0 0.0
2018-Jul-09 15:30N 37°57' E 023°36'0 0.0
2018-Jul-09 14:58N 37°57' E 023°36'0 0.0
2018-Jul-09 14:23N 37°57' E 023°36'0 0.0
2018-Jul-09 13:59N 37°57' E 023°36'0 0.0
2018-Jul-09 13:27N 37°57' E 023°36'0 0.0
2018-Jul-09 13:00N 37°57' E 023°36'0 0.0
2018-Jul-09 12:30N 37°57' E 023°36'0 0.0
2018-Jul-09 12:00N 37°57' E 023°36'510.6
2018-Jul-09 11:31N 37°52' E 023°39'816.1
2018-Jul-09 11:01N 37°45' E 023°43'815.2
2018-Jul-09 10:30N 37°40' E 023°51'  
Track history (hours):
 
Tides and Currents Weather Stations Pressure Air Temp Water Temp Dewpoint Dewpoint Depression Visibility Wind Speed Wind Dir Waves Ship Positions

Pelagitis

Last reported at 2018-Jul-18 22:19 UTC. Time now 2018-Jul-19 15:03 UTC.
Position N 37°10' E 025°48'.

Length 151 m; draft 6.7 m.

Type: Cargo ship. MMSI: 241041410.

Date/timePositionNaut miles runAvg speedWind from/ knotsBaromVisibWave heightAir tempDewpointWater temp
2018-Jul-18 22:19N 37°10' E 025°48'414.1
2018-Jul-18 22:01N 37°12' E 025°43'1014.1
2018-Jul-18 21:17N 37°14' E 025°30'414.4
2018-Jul-18 21:00N 37°15' E 025°25'714.1
2018-Jul-18 20:30N 37°16' E 025°17'713.8
2018-Jul-18 19:59N 37°18' E 025°08'713.8
2018-Jul-18 19:30N 37°20' E 024°60'713.9
2018-Jul-18 19:00N 37°21' E 024°51'3113.3
2018-Jul-18 16:41N 37°31' E 024°14'1014.2
2018-Jul-18 15:59N 37°34' E 024°02'814.1
2018-Jul-18 15:26N 37°37' E 023°53'613.9
2018-Jul-18 15:00N 37°39' E 023°46'612.7
2018-Jul-18 14:30N 37°44' E 023°41'1413.8
2018-Jul-18 13:30N 37°57' E 023°36'1 1.3
2018-Jul-18 13:01N 37°57' E 023°36'0 0.0
2018-Jul-18 12:30N 37°57' E 023°36'0 0.0
2018-Jul-18 12:01N 37°57' E 023°36'0 0.0
2018-Jul-18 11:30N 37°57' E 023°36'0 0.0
2018-Jul-18 10:29N 37°57' E 023°36'0 0.0
2018-Jul-18 09:59N 37°57' E 023°36'0 0.0
2018-Jul-18 09:24N 37°57' E 023°36'0 0.0
2018-Jul-18 08:55N 37°57' E 023°36'0 0.0
2018-Jul-18 08:30N 37°57' E 023°36'0 0.0
2018-Jul-18 08:00N 37°57' E 023°36'0 0.0
2018-Jul-18 07:27N 37°57' E 023°36'0 0.0
2018-Jul-18 06:58N 37°57' E 023°36'0 0.0
2018-Jul-18 06:25N 37°57' E 023°36'0 0.0
2018-Jul-18 06:00N 37°57' E 023°36'0 0.0
2018-Jul-18 05:30N 37°57' E 023°36'0 0.0
2018-Jul-18 05:00N 37°57' E 023°36'0 0.0
2018-Jul-18 04:30N 37°57' E 023°36'0 0.0
2018-Jul-18 04:00N 37°57' E 023°36'510.2
2018-Jul-18 03:30N 37°52' E 023°38'714.9
2018-Jul-18 03:00N 37°46' E 023°43'714.8
2018-Jul-18 02:30N 37°39' E 023°47'714.9
2018-Jul-18 02:00N 37°32' E 023°48'814.7
2018-Jul-18 01:30N 37°24' E 023°49'5515.0
2018-Jul-17 21:48N 36°29' E 024°01'414.9
2018-Jul-17 21:30N 36°25' E 024°02'815.0
2018-Jul-17 20:59N 36°17' E 024°03'4814.5
2018-Jul-17 17:38N 35°29' E 024°12'2 0.2
2018-Jul-17 08:27N 35°29' E 024°10'1814.5
2018-Jul-17 07:11N 35°47' E 024°10'515.6
2018-Jul-17 06:51N 35°53' E 024°09'615.7
2018-Jul-17 06:28N 35°58' E 024°07'715.6
2018-Jul-17 06:00N 36°05' E 024°06'10015.5
2018-Jul-16 23:31N 37°44' E 023°40'815.5
2018-Jul-16 23:00N 37°51' E 023°37'6 3.2
2018-Jul-16 21:07N 37°57' E 023°36'0 0.0
2018-Jul-16 20:58N 37°57' E 023°36'0 0.0
2018-Jul-16 20:29N 37°57' E 023°36'0 0.0
2018-Jul-16 19:59N 37°57' E 023°36'0 0.0
2018-Jul-16 19:29N 37°57' E 023°36'0 0.0
2018-Jul-16 18:56N 37°57' E 023°36'0 0.0
2018-Jul-16 18:27N 37°57' E 023°36'0 0.0
2018-Jul-16 17:54N 37°57' E 023°36'0 0.0
2018-Jul-16 17:28N 37°57' E 023°36'0 0.0
2018-Jul-16 16:58N 37°57' E 023°36'0 0.0
2018-Jul-16 16:28N 37°57' E 023°36'0 0.0
2018-Jul-16 16:00N 37°57' E 023°36'4 7.1
2018-Jul-16 15:31N 37°54' E 023°38'816.5
2018-Jul-16 15:01N 37°46' E 023°42'815.6
2018-Jul-16 14:30N 37°41' E 023°49'816.2
2018-Jul-16 14:00N 37°38' E 023°59'143 6.6
2018-Jul-15 16:12N 39°52' E 025°03'315.1
2018-Jul-15 15:58N 39°53' E 024°58'815.7
2018-Jul-15 15:29N 39°53' E 024°48'613.6
2018-Jul-15 15:01N 39°53' E 024°40'1514.8
2018-Jul-15 14:01N 39°53' E 024°21'014.9
2018-Jul-15 13:59N 39°53' E 024°20'814.9
2018-Jul-15 13:29N 39°53' E 024°10'3 0.2
2018-Jul-14 22:02N 39°53' E 024°06'215.9
2018-Jul-14 21:56N 39°53' E 024°08'1116.0
2018-Jul-14 21:17N 39°53' E 024°22'616.4
2018-Jul-14 20:54N 39°53' E 024°30'1016.1
2018-Jul-14 20:18N 39°53' E 024°43'616.1
2018-Jul-14 19:54N 39°53' E 024°51'134 6.2
2018-Jul-13 22:12N 37°44' E 025°39'615.8
2018-Jul-13 21:47N 37°44' E 025°30'515.6
2018-Jul-13 21:30N 37°43' E 025°25'2715.4
2018-Jul-13 19:45N 37°42' E 024°51'2314.9
2018-Jul-13 18:14N 37°43' E 024°22'2214.5
2018-Jul-13 16:42N 37°38' E 023°55'315.0
2018-Jul-13 16:30N 37°38' E 023°51'714.8
2018-Jul-13 16:00N 37°41' E 023°42'815.4
2018-Jul-13 15:30N 37°48' E 023°38'815.2
2018-Jul-13 15:01N 37°55' E 023°36'2 2.0
2018-Jul-13 14:00N 37°57' E 023°36'0 0.0
2018-Jul-13 13:29N 37°57' E 023°36'0 0.0
2018-Jul-13 12:59N 37°57' E 023°36'0 0.0
2018-Jul-13 12:23N 37°57' E 023°36'0 0.0
2018-Jul-13 11:59N 37°57' E 023°36'0 0.0
2018-Jul-13 11:30N 37°57' E 023°36'0 0.0
2018-Jul-13 10:58N 37°57' E 023°36'0 0.0
2018-Jul-13 10:23N 37°57' E 023°36'0 0.0
2018-Jul-13 09:59N 37°57' E 023°36'0 0.0
2018-Jul-13 09:27N 37°57' E 023°36'0 0.0
2018-Jul-13 08:58N 37°57' E 023°36'0 0.0
2018-Jul-13 08:30N 37°57' E 023°36'2 3.5
2018-Jul-13 08:01N 37°55' E 023°37'815.3
2018-Jul-13 07:31N 37°49' E 023°41'815.3
2018-Jul-13 07:00N 37°42' E 023°46'815.4
2018-Jul-13 06:30N 37°38' E 023°54'4215.1
2018-Jul-13 03:44N 37°24' E 024°44'415.6
2018-Jul-13 03:31N 37°23' E 024°48'815.3
2018-Jul-13 03:00N 37°20' E 024°57'815.4
2018-Jul-13 02:30N 37°19' E 025°07'815.6
2018-Jul-13 02:00N 37°18' E 025°16'815.4
2018-Jul-13 01:30N 37°17' E 025°26'1115.3
2018-Jul-13 00:46N 37°15' E 025°40'415.2
2018-Jul-13 00:31N 37°14' E 025°45'79 2.4
2018-Jul-11 15:36N 37°21' E 024°06'214.6
2018-Jul-11 15:28N 37°23' E 024°05'714.6
2018-Jul-11 15:00N 37°28' E 023°59'714.6
2018-Jul-11 14:30N 37°33' E 023°53'714.7
2018-Jul-11 14:00N 37°38' E 023°46'714.3
2018-Jul-11 13:30N 37°44' E 023°40'714.5
2018-Jul-11 13:00N 37°51' E 023°37'713.3
2018-Jul-11 12:30N 37°57' E 023°36'0 0.8
2018-Jul-11 12:00N 37°57' E 023°36'0 0.0
2018-Jul-11 11:30N 37°57' E 023°36'0 0.0
2018-Jul-11 10:58N 37°57' E 023°36'0 0.0
2018-Jul-11 10:28N 37°57' E 023°36'0 0.0
2018-Jul-11 09:59N 37°57' E 023°36'0 0.0
2018-Jul-11 09:29N 37°57' E 023°36'0 0.0
2018-Jul-11 09:00N 37°57' E 023°36'0 0.0
2018-Jul-11 08:28N 37°57' E 023°36'0 0.0
2018-Jul-11 08:00N 37°57' E 023°36'0 0.0
2018-Jul-11 07:29N 37°57' E 023°36'0 0.0
2018-Jul-11 06:58N 37°57' E 023°36'0 0.0
2018-Jul-11 06:23N 37°57' E 023°36'0 0.0
2018-Jul-11 05:58N 37°57' E 023°36'0 0.0
2018-Jul-11 05:29N 37°57' E 023°36'0 0.0
2018-Jul-11 04:59N 37°57' E 023°36'0 0.0
2018-Jul-11 04:30N 37°57' E 023°36'2 3.9
2018-Jul-11 04:00N 37°55' E 023°37'815.3
2018-Jul-11 03:30N 37°48' E 023°41'715.0
2018-Jul-11 03:00N 37°42' E 023°45'714.7
2018-Jul-11 02:30N 37°34' E 023°47'12715.0
2018-Jul-10 18:03N 35°29' E 024°12'414.5
2018-Jul-10 17:45N 35°29' E 024°06'1 0.1
2018-Jul-10 07:37N 35°30' E 024°05'12513.7
2018-Jul-09 22:28N 37°34' E 023°44'614.4
2018-Jul-09 22:00N 37°40' E 023°42'714.4
2018-Jul-09 21:31N 37°47' E 023°39'714.5
2018-Jul-09 21:00N 37°54' E 023°36'3 6.7
2018-Jul-09 20:30N 37°57' E 023°36'0 0.0
2018-Jul-09 20:00N 37°57' E 023°36'0 0.0
2018-Jul-09 19:29N 37°57' E 023°36'0 0.0
2018-Jul-09 18:58N 37°57' E 023°36'0 0.0
2018-Jul-09 18:29N 37°57' E 023°36'0 0.0
2018-Jul-09 17:57N 37°57' E 023°36'0 0.0
2018-Jul-09 17:30N 37°57' E 023°36'0 0.0
2018-Jul-09 17:00N 37°57' E 023°36'0 0.0
2018-Jul-09 16:23N 37°57' E 023°36'0 0.0
2018-Jul-09 15:57N 37°57' E 023°36'0 0.0
2018-Jul-09 15:30N 37°57' E 023°36'0 0.0
2018-Jul-09 14:58N 37°57' E 023°36'0 0.0
2018-Jul-09 14:23N 37°57' E 023°36'0 0.0
2018-Jul-09 13:59N 37°57' E 023°36'0 0.0
2018-Jul-09 13:27N 37°57' E 023°36'0 0.0
2018-Jul-09 13:00N 37°57' E 023°36'0 0.0
2018-Jul-09 12:30N 37°57' E 023°36'0 0.0
2018-Jul-09 12:00N 37°57' E 023°36'510.6
2018-Jul-09 11:31N 37°52' E 023°39'816.1
2018-Jul-09 11:01N 37°45' E 023°43'815.2
2018-Jul-09 10:30N 37°40' E 023°51'  

Dump ship's entire track history